sensor_id;sensor_type;location;lat;lon;timestamp;P1;durP1;ratioP1;P2;durP2;ratioP2
64297;SDS011;50639;53.270;7.956;2023-09-08T00:00:32;8.70;;;5.20;;
64297;SDS011;50639;53.270;7.956;2023-09-08T00:02:57;8.63;;;5.20;;
64297;SDS011;50639;53.270;7.956;2023-09-08T00:05:23;10.75;;;5.07;;
64297;SDS011;50639;53.270;7.956;2023-09-08T00:07:48;9.18;;;4.88;;
64297;SDS011;50639;53.270;7.956;2023-09-08T00:10:13;8.45;;;5.75;;
64297;SDS011;50639;53.270;7.956;2023-09-08T00:12:39;10.60;;;6.03;;
64297;SDS011;50639;53.270;7.956;2023-09-08T00:15:05;8.75;;;5.18;;
64297;SDS011;50639;53.270;7.956;2023-09-08T00:17:31;12.65;;;5.97;;
64297;SDS011;50639;53.270;7.956;2023-09-08T00:19:57;10.32;;;5.28;;
64297;SDS011;50639;53.270;7.956;2023-09-08T00:22:23;7.82;;;5.10;;
64297;SDS011;50639;53.270;7.956;2023-09-08T00:24:48;9.98;;;5.00;;
64297;SDS011;50639;53.270;7.956;2023-09-08T00:27:13;9.10;;;5.18;;
64297;SDS011;50639;53.270;7.956;2023-09-08T00:29:39;13.45;;;5.15;;
64297;SDS011;50639;53.270;7.956;2023-09-08T00:32:04;7.90;;;4.97;;
64297;SDS011;50639;53.270;7.956;2023-09-08T00:34:30;8.38;;;4.97;;
64297;SDS011;50639;53.270;7.956;2023-09-08T00:36:56;9.25;;;5.22;;
64297;SDS011;50639;53.270;7.956;2023-09-08T00:39:21;10.63;;;5.68;;
64297;SDS011;50639;53.270;7.956;2023-09-08T00:41:47;12.95;;;6.03;;
64297;SDS011;50639;53.270;7.956;2023-09-08T00:44:12;10.40;;;5.38;;
64297;SDS011;50639;53.270;7.956;2023-09-08T00:46:38;9.80;;;5.50;;
64297;SDS011;50639;53.270;7.956;2023-09-08T00:49:05;12.10;;;5.20;;
64297;SDS011;50639;53.270;7.956;2023-09-08T00:51:30;7.32;;;5.15;;
64297;SDS011;50639;53.270;7.956;2023-09-08T00:53:56;10.77;;;5.70;;
64297;SDS011;50639;53.270;7.956;2023-09-08T00:56:22;10.48;;;5.53;;
64297;SDS011;50639;53.270;7.956;2023-09-08T00:58:49;10.95;;;5.57;;
64297;SDS011;50639;53.270;7.956;2023-09-08T01:01:14;9.32;;;5.50;;
64297;SDS011;50639;53.270;7.956;2023-09-08T01:03:42;9.82;;;5.95;;
64297;SDS011;50639;53.270;7.956;2023-09-08T01:06:08;10.48;;;5.55;;
64297;SDS011;50639;53.270;7.956;2023-09-08T01:08:35;8.27;;;5.55;;
64297;SDS011;50639;53.270;7.956;2023-09-08T01:13:27;11.63;;;5.60;;
64297;SDS011;50639;53.270;7.956;2023-09-08T01:15:53;8.57;;;5.57;;
64297;SDS011;50639;53.270;7.956;2023-09-08T01:18:19;12.00;;;5.05;;
64297;SDS011;50639;53.270;7.956;2023-09-08T01:23:24;8.77;;;5.50;;
64297;SDS011;50639;53.270;7.956;2023-09-08T01:26:04;9.73;;;5.43;;
64297;SDS011;50639;53.270;7.956;2023-09-08T01:28:38;13.03;;;5.70;;
64297;SDS011;50639;53.270;7.956;2023-09-08T01:31:05;6.78;;;5.05;;
64297;SDS011;50639;53.270;7.956;2023-09-08T01:33:31;8.80;;;5.45;;
64297;SDS011;50639;53.270;7.956;2023-09-08T01:35:57;10.23;;;6.18;;
64297;SDS011;50639;53.270;7.956;2023-09-08T01:38:24;9.35;;;6.32;;
64297;SDS011;50639;53.270;7.956;2023-09-08T01:40:51;8.48;;;5.85;;
64297;SDS011;50639;53.270;7.956;2023-09-08T01:43:16;9.18;;;5.80;;
64297;SDS011;50639;53.270;7.956;2023-09-08T01:45:41;14.98;;;6.00;;
64297;SDS011;50639;53.270;7.956;2023-09-08T01:48:08;8.93;;;5.15;;
64297;SDS011;50639;53.270;7.956;2023-09-08T01:50:34;10.10;;;5.70;;
64297;SDS011;50639;53.270;7.956;2023-09-08T01:52:59;9.43;;;6.20;;
64297;SDS011;50639;53.270;7.956;2023-09-08T01:55:24;8.98;;;5.63;;
64297;SDS011;50639;53.270;7.956;2023-09-08T01:57:50;12.57;;;5.97;;
64297;SDS011;50639;53.270;7.956;2023-09-08T02:00:17;11.73;;;5.53;;
64297;SDS011;50639;53.270;7.956;2023-09-08T02:02:42;8.57;;;6.00;;
64297;SDS011;50639;53.270;7.956;2023-09-08T02:05:08;10.27;;;5.60;;
64297;SDS011;50639;53.270;7.956;2023-09-08T02:07:34;9.63;;;5.57;;
64297;SDS011;50639;53.270;7.956;2023-09-08T02:09:59;8.70;;;5.30;;
64297;SDS011;50639;53.270;7.956;2023-09-08T02:12:25;8.73;;;5.68;;
64297;SDS011;50639;53.270;7.956;2023-09-08T02:14:50;10.68;;;6.30;;
64297;SDS011;50639;53.270;7.956;2023-09-08T02:17:17;8.10;;;5.90;;
64297;SDS011;50639;53.270;7.956;2023-09-08T02:19:43;12.57;;;6.25;;
64297;SDS011;50639;53.270;7.956;2023-09-08T02:22:09;10.45;;;6.28;;
64297;SDS011;50639;53.270;7.956;2023-09-08T02:24:34;12.60;;;6.05;;
64297;SDS011;50639;53.270;7.956;2023-09-08T02:27:00;13.35;;;6.38;;
64297;SDS011;50639;53.270;7.956;2023-09-08T02:29:25;11.30;;;6.07;;
64297;SDS011;50639;53.270;7.956;2023-09-08T02:31:51;12.38;;;5.80;;
64297;SDS011;50639;53.270;7.956;2023-09-08T02:34:17;12.43;;;6.30;;
64297;SDS011;50639;53.270;7.956;2023-09-08T02:36:43;8.93;;;5.75;;
64297;SDS011;50639;53.270;7.956;2023-09-08T02:39:08;9.05;;;6.28;;
64297;SDS011;50639;53.270;7.956;2023-09-08T02:41:34;11.73;;;6.22;;
64297;SDS011;50639;53.270;7.956;2023-09-08T02:44:00;11.13;;;6.18;;
64297;SDS011;50639;53.270;7.956;2023-09-08T02:46:25;8.70;;;5.97;;
64297;SDS011;50639;53.270;7.956;2023-09-08T02:48:52;9.30;;;5.93;;
64297;SDS011;50639;53.270;7.956;2023-09-08T02:51:18;12.05;;;6.65;;
64297;SDS011;50639;53.270;7.956;2023-09-08T02:53:43;9.98;;;6.60;;
64297;SDS011;50639;53.270;7.956;2023-09-08T02:56:09;9.63;;;6.30;;
64297;SDS011;50639;53.270;7.956;2023-09-08T02:58:34;10.18;;;6.88;;
64297;SDS011;50639;53.270;7.956;2023-09-08T03:01:13;9.75;;;6.82;;
64297;SDS011;50639;53.270;7.956;2023-09-08T03:03:42;9.50;;;5.68;;
64297;SDS011;50639;53.270;7.956;2023-09-08T03:06:10;9.90;;;6.20;;
64297;SDS011;50639;53.270;7.956;2023-09-08T03:08:38;10.57;;;6.13;;
64297;SDS011;50639;53.270;7.956;2023-09-08T03:11:04;11.48;;;6.25;;
64297;SDS011;50639;53.270;7.956;2023-09-08T03:13:32;10.27;;;6.53;;
64297;SDS011;50639;53.270;7.956;2023-09-08T03:16:06;11.03;;;6.23;;
64297;SDS011;50639;53.270;7.956;2023-09-08T03:18:32;9.98;;;6.28;;
64297;SDS011;50639;53.270;7.956;2023-09-08T03:20:58;8.75;;;6.05;;
64297;SDS011;50639;53.270;7.956;2023-09-08T03:23:25;10.20;;;7.07;;
64297;SDS011;50639;53.270;7.956;2023-09-08T03:25:51;8.43;;;6.22;;
64297;SDS011;50639;53.270;7.956;2023-09-08T03:28:16;10.13;;;6.15;;
64297;SDS011;50639;53.270;7.956;2023-09-08T03:30:41;9.43;;;6.68;;
64297;SDS011;50639;53.270;7.956;2023-09-08T03:33:07;10.02;;;6.75;;
64297;SDS011;50639;53.270;7.956;2023-09-08T03:35:34;11.15;;;6.22;;
64297;SDS011;50639;53.270;7.956;2023-09-08T03:38:00;10.52;;;6.10;;
64297;SDS011;50639;53.270;7.956;2023-09-08T03:40:26;11.93;;;6.40;;
64297;SDS011;50639;53.270;7.956;2023-09-08T03:42:51;9.95;;;6.00;;
64297;SDS011;50639;53.270;7.956;2023-09-08T03:45:18;8.80;;;6.00;;
64297;SDS011;50639;53.270;7.956;2023-09-08T03:47:44;11.52;;;6.22;;
64297;SDS011;50639;53.270;7.956;2023-09-08T03:50:09;9.35;;;5.82;;
64297;SDS011;50639;53.270;7.956;2023-09-08T03:52:35;8.43;;;5.80;;
64297;SDS011;50639;53.270;7.956;2023-09-08T03:55:01;8.68;;;5.50;;
64297;SDS011;50639;53.270;7.956;2023-09-08T03:57:26;11.23;;;6.40;;
64297;SDS011;50639;53.270;7.956;2023-09-08T03:59:51;15.57;;;7.13;;
64297;SDS011;50639;53.270;7.956;2023-09-08T04:02:17;12.48;;;6.93;;
64297;SDS011;50639;53.270;7.956;2023-09-08T04:04:42;17.75;;;7.45;;
64297;SDS011;50639;53.270;7.956;2023-09-08T04:07:08;9.73;;;6.82;;
64297;SDS011;50639;53.270;7.956;2023-09-08T04:09:33;16.40;;;7.07;;
64297;SDS011;50639;53.270;7.956;2023-09-08T04:11:59;9.85;;;6.70;;
64297;SDS011;50639;53.270;7.956;2023-09-08T04:14:24;10.25;;;6.20;;
64297;SDS011;50639;53.270;7.956;2023-09-08T04:16:52;10.98;;;7.63;;
64297;SDS011;50639;53.270;7.956;2023-09-08T04:19:18;13.75;;;7.22;;
64297;SDS011;50639;53.270;7.956;2023-09-08T04:21:43;10.48;;;6.93;;
64297;SDS011;50639;53.270;7.956;2023-09-08T04:24:09;9.77;;;6.18;;
64297;SDS011;50639;53.270;7.956;2023-09-08T04:26:36;8.82;;;5.97;;
64297;SDS011;50639;53.270;7.956;2023-09-08T04:29:01;19.30;;;15.73;;
64297;SDS011;50639;53.270;7.956;2023-09-08T04:31:27;25.33;;;19.10;;
64297;SDS011;50639;53.270;7.956;2023-09-08T04:33:53;14.52;;;9.60;;
64297;SDS011;50639;53.270;7.956;2023-09-08T04:36:19;12.00;;;8.43;;
64297;SDS011;50639;53.270;7.956;2023-09-08T04:38:44;13.05;;;7.05;;
64297;SDS011;50639;53.270;7.956;2023-09-08T04:41:10;12.55;;;6.45;;
64297;SDS011;50639;53.270;7.956;2023-09-08T04:43:35;12.25;;;7.05;;
64297;SDS011;50639;53.270;7.956;2023-09-08T04:46:02;8.93;;;6.00;;
64297;SDS011;50639;53.270;7.956;2023-09-08T04:48:28;12.60;;;7.13;;
64297;SDS011;50639;53.270;7.956;2023-09-08T04:50:54;13.20;;;7.30;;
64297;SDS011;50639;53.270;7.956;2023-09-08T04:53:20;9.70;;;7.05;;
64297;SDS011;50639;53.270;7.956;2023-09-08T04:55:46;11.10;;;7.03;;
64297;SDS011;50639;53.270;7.956;2023-09-08T04:58:11;14.27;;;6.78;;
64297;SDS011;50639;53.270;7.956;2023-09-08T05:00:39;10.50;;;6.70;;
64297;SDS011;50639;53.270;7.956;2023-09-08T05:03:05;10.15;;;6.03;;
64297;SDS011;50639;53.270;7.956;2023-09-08T05:05:31;10.57;;;6.72;;
64297;SDS011;50639;53.270;7.956;2023-09-08T05:07:57;11.15;;;6.50;;
64297;SDS011;50639;53.270;7.956;2023-09-08T05:10:23;11.75;;;6.85;;
64297;SDS011;50639;53.270;7.956;2023-09-08T05:12:49;9.70;;;7.13;;
64297;SDS011;50639;53.270;7.956;2023-09-08T05:15:15;10.45;;;6.63;;
64297;SDS011;50639;53.270;7.956;2023-09-08T05:17:45;8.73;;;6.50;;
64297;SDS011;50639;53.270;7.956;2023-09-08T05:20:11;11.20;;;6.97;;
64297;SDS011;50639;53.270;7.956;2023-09-08T05:22:36;10.63;;;6.32;;
64297;SDS011;50639;53.270;7.956;2023-09-08T05:25:02;10.50;;;6.80;;
64297;SDS011;50639;53.270;7.956;2023-09-08T05:27:31;13.10;;;7.03;;
64297;SDS011;50639;53.270;7.956;2023-09-08T05:29:57;10.13;;;6.80;;
64297;SDS011;50639;53.270;7.956;2023-09-08T05:32:23;12.18;;;6.15;;
64297;SDS011;50639;53.270;7.956;2023-09-08T05:34:48;9.32;;;6.85;;
64297;SDS011;50639;53.270;7.956;2023-09-08T05:37:14;10.15;;;6.65;;
64297;SDS011;50639;53.270;7.956;2023-09-08T05:39:39;9.13;;;6.72;;
64297;SDS011;50639;53.270;7.956;2023-09-08T05:42:06;8.52;;;6.10;;
64297;SDS011;50639;53.270;7.956;2023-09-08T05:44:33;10.55;;;7.18;;
64297;SDS011;50639;53.270;7.956;2023-09-08T05:46:59;9.25;;;7.28;;
64297;SDS011;50639;53.270;7.956;2023-09-08T05:49:24;15.43;;;7.03;;
64297;SDS011;50639;53.270;7.956;2023-09-08T05:51:50;11.70;;;6.50;;
64297;SDS011;50639;53.270;7.956;2023-09-08T05:54:16;11.23;;;6.30;;
64297;SDS011;50639;53.270;7.956;2023-09-08T05:56:42;10.60;;;7.05;;
64297;SDS011;50639;53.270;7.956;2023-09-08T05:59:08;11.30;;;6.43;;
64297;SDS011;50639;53.270;7.956;2023-09-08T06:01:34;10.30;;;6.68;;
64297;SDS011;50639;53.270;7.956;2023-09-08T06:04:01;12.55;;;6.38;;
64297;SDS011;50639;53.270;7.956;2023-09-08T06:06:28;10.95;;;6.78;;
64297;SDS011;50639;53.270;7.956;2023-09-08T06:08:54;10.43;;;6.78;;
64297;SDS011;50639;53.270;7.956;2023-09-08T06:11:20;15.43;;;7.07;;
64297;SDS011;50639;53.270;7.956;2023-09-08T06:13:45;12.18;;;7.32;;
64297;SDS011;50639;53.270;7.956;2023-09-08T06:16:11;11.07;;;6.68;;
64297;SDS011;50639;53.270;7.956;2023-09-08T06:18:36;11.00;;;6.72;;
64297;SDS011;50639;53.270;7.956;2023-09-08T06:21:07;11.85;;;6.80;;
64297;SDS011;50639;53.270;7.956;2023-09-08T06:23:33;14.13;;;7.35;;
64297;SDS011;50639;53.270;7.956;2023-09-08T06:25:59;11.43;;;8.00;;
64297;SDS011;50639;53.270;7.956;2023-09-08T06:28:26;9.82;;;7.18;;
64297;SDS011;50639;53.270;7.956;2023-09-08T06:30:52;13.20;;;6.60;;
64297;SDS011;50639;53.270;7.956;2023-09-08T06:33:18;10.15;;;6.97;;
64297;SDS011;50639;53.270;7.956;2023-09-08T06:35:45;10.63;;;7.70;;
64297;SDS011;50639;53.270;7.956;2023-09-08T06:38:11;11.40;;;7.13;;
64297;SDS011;50639;53.270;7.956;2023-09-08T06:40:36;12.85;;;7.15;;
64297;SDS011;50639;53.270;7.956;2023-09-08T06:43:03;11.82;;;7.30;;
64297;SDS011;50639;53.270;7.956;2023-09-08T06:45:40;9.70;;;6.40;;
64297;SDS011;50639;53.270;7.956;2023-09-08T06:48:06;11.65;;;6.80;;
64297;SDS011;50639;53.270;7.956;2023-09-08T06:50:31;10.85;;;8.00;;
64297;SDS011;50639;53.270;7.956;2023-09-08T06:52:57;11.73;;;6.95;;
64297;SDS011;50639;53.270;7.956;2023-09-08T06:55:22;12.38;;;6.70;;
64297;SDS011;50639;53.270;7.956;2023-09-08T06:57:48;11.15;;;6.90;;
64297;SDS011;50639;53.270;7.956;2023-09-08T07:00:14;9.52;;;6.57;;
64297;SDS011;50639;53.270;7.956;2023-09-08T07:02:42;10.80;;;6.88;;
64297;SDS011;50639;53.270;7.956;2023-09-08T07:05:09;11.50;;;6.82;;
64297;SDS011;50639;53.270;7.956;2023-09-08T07:07:35;11.40;;;6.70;;
64297;SDS011;50639;53.270;7.956;2023-09-08T07:10:04;19.35;;;7.43;;
64297;SDS011;50639;53.270;7.956;2023-09-08T07:12:30;11.98;;;7.25;;
64297;SDS011;50639;53.270;7.956;2023-09-08T07:14:56;12.10;;;6.65;;
64297;SDS011;50639;53.270;7.956;2023-09-08T07:17:21;12.43;;;7.35;;
64297;SDS011;50639;53.270;7.956;2023-09-08T07:19:49;8.65;;;6.32;;
64297;SDS011;50639;53.270;7.956;2023-09-08T07:22:15;11.20;;;6.63;;
64297;SDS011;50639;53.270;7.956;2023-09-08T07:24:40;9.85;;;6.75;;
64297;SDS011;50639;53.270;7.956;2023-09-08T07:27:06;14.85;;;6.82;;
64297;SDS011;50639;53.270;7.956;2023-09-08T07:29:32;10.45;;;6.90;;
64297;SDS011;50639;53.270;7.956;2023-09-08T07:31:58;10.15;;;6.35;;
64297;SDS011;50639;53.270;7.956;2023-09-08T07:34:23;13.18;;;7.07;;
64297;SDS011;50639;53.270;7.956;2023-09-08T07:36:49;10.25;;;7.03;;
64297;SDS011;50639;53.270;7.956;2023-09-08T07:39:14;11.10;;;6.47;;
64297;SDS011;50639;53.270;7.956;2023-09-08T07:41:40;13.30;;;6.78;;
64297;SDS011;50639;53.270;7.956;2023-09-08T07:44:07;10.07;;;6.60;;
64297;SDS011;50639;53.270;7.956;2023-09-08T07:46:33;9.63;;;6.20;;
64297;SDS011;50639;53.270;7.956;2023-09-08T07:48:58;14.15;;;6.40;;
64297;SDS011;50639;53.270;7.956;2023-09-08T07:51:25;14.20;;;6.27;;
64297;SDS011;50639;53.270;7.956;2023-09-08T07:53:52;12.40;;;6.53;;
64297;SDS011;50639;53.270;7.956;2023-09-08T07:56:18;13.82;;;6.10;;
64297;SDS011;50639;53.270;7.956;2023-09-08T07:58:44;8.13;;;5.88;;
64297;SDS011;50639;53.270;7.956;2023-09-08T08:01:09;11.32;;;5.78;;
64297;SDS011;50639;53.270;7.956;2023-09-08T08:03:35;10.88;;;5.90;;
64297;SDS011;50639;53.270;7.956;2023-09-08T08:06:01;11.38;;;5.95;;
64297;SDS011;50639;53.270;7.956;2023-09-08T08:08:27;10.98;;;6.18;;
64297;SDS011;50639;53.270;7.956;2023-09-08T08:10:52;11.23;;;5.65;;
64297;SDS011;50639;53.270;7.956;2023-09-08T08:13:17;12.05;;;6.57;;
64297;SDS011;50639;53.270;7.956;2023-09-08T08:15:44;10.98;;;6.07;;
64297;SDS011;50639;53.270;7.956;2023-09-08T08:18:12;10.27;;;6.03;;
64297;SDS011;50639;53.270;7.956;2023-09-08T08:20:38;13.02;;;6.05;;
64297;SDS011;50639;53.270;7.956;2023-09-08T08:23:04;10.15;;;5.97;;
64297;SDS011;50639;53.270;7.956;2023-09-08T08:27:57;12.83;;;5.93;;
64297;SDS011;50639;53.270;7.956;2023-09-08T08:30:24;12.23;;;5.82;;
64297;SDS011;50639;53.270;7.956;2023-09-08T08:32:49;11.20;;;6.68;;
64297;SDS011;50639;53.270;7.956;2023-09-08T08:35:16;9.85;;;5.97;;
64297;SDS011;50639;53.270;7.956;2023-09-08T08:37:42;10.50;;;5.63;;
64297;SDS011;50639;53.270;7.956;2023-09-08T08:40:09;9.93;;;5.25;;
64297;SDS011;50639;53.270;7.956;2023-09-08T08:42:37;9.20;;;5.85;;
64297;SDS011;50639;53.270;7.956;2023-09-08T08:45:04;10.18;;;6.00;;
64297;SDS011;50639;53.270;7.956;2023-09-08T08:47:30;12.73;;;5.85;;
64297;SDS011;50639;53.270;7.956;2023-09-08T08:49:56;9.95;;;5.72;;
64297;SDS011;50639;53.270;7.956;2023-09-08T08:52:26;8.82;;;5.40;;
64297;SDS011;50639;53.270;7.956;2023-09-08T08:54:52;9.33;;;5.50;;
64297;SDS011;50639;53.270;7.956;2023-09-08T08:57:17;9.55;;;5.72;;
64297;SDS011;50639;53.270;7.956;2023-09-08T08:59:43;11.85;;;5.97;;
64297;SDS011;50639;53.270;7.956;2023-09-08T09:02:11;10.55;;;5.90;;
64297;SDS011;50639;53.270;7.956;2023-09-08T09:04:38;10.35;;;5.45;;
64297;SDS011;50639;53.270;7.956;2023-09-08T09:07:03;14.40;;;5.68;;
64297;SDS011;50639;53.270;7.956;2023-09-08T09:09:31;13.18;;;5.80;;
64297;SDS011;50639;53.270;7.956;2023-09-08T09:11:57;11.57;;;5.90;;
64297;SDS011;50639;53.270;7.956;2023-09-08T09:14:22;12.18;;;6.00;;
64297;SDS011;50639;53.270;7.956;2023-09-08T09:16:48;8.43;;;5.25;;
64297;SDS011;50639;53.270;7.956;2023-09-08T09:19:18;8.13;;;5.22;;
64297;SDS011;50639;53.270;7.956;2023-09-08T09:21:53;10.63;;;5.90;;
64297;SDS011;50639;53.270;7.956;2023-09-08T09:24:32;7.82;;;5.20;;
64297;SDS011;50639;53.270;7.956;2023-09-08T09:27:00;8.85;;;5.90;;
64297;SDS011;50639;53.270;7.956;2023-09-08T09:29:26;12.10;;;5.45;;
64297;SDS011;50639;53.270;7.956;2023-09-08T09:31:53;12.98;;;5.65;;
64297;SDS011;50639;53.270;7.956;2023-09-08T09:34:21;11.63;;;5.30;;
64297;SDS011;50639;53.270;7.956;2023-09-08T09:36:48;9.93;;;5.53;;
64297;SDS011;50639;53.270;7.956;2023-09-08T09:39:20;10.93;;;5.97;;
64297;SDS011;50639;53.270;7.956;2023-09-08T09:41:47;9.43;;;5.70;;
64297;SDS011;50639;53.270;7.956;2023-09-08T09:44:14;9.57;;;5.30;;
64297;SDS011;50639;53.270;7.956;2023-09-08T09:46:46;12.23;;;4.80;;
64297;SDS011;50639;53.270;7.956;2023-09-08T09:49:13;8.85;;;5.63;;
64297;SDS011;50639;53.270;7.956;2023-09-08T09:51:49;10.75;;;5.35;;
64297;SDS011;50639;53.270;7.956;2023-09-08T09:54:16;12.07;;;5.63;;
64297;SDS011;50639;53.270;7.956;2023-09-08T09:56:42;8.20;;;5.30;;
64297;SDS011;50639;53.270;7.956;2023-09-08T09:59:09;9.73;;;5.55;;
64297;SDS011;50639;53.270;7.956;2023-09-08T10:01:36;12.68;;;5.30;;
64297;SDS011;50639;53.270;7.956;2023-09-08T10:04:03;10.82;;;5.15;;
64297;SDS011;50639;53.270;7.956;2023-09-08T10:06:36;10.55;;;4.95;;
64297;SDS011;50639;53.270;7.956;2023-09-08T10:09:03;9.25;;;5.20;;
64297;SDS011;50639;53.270;7.956;2023-09-08T10:11:44;11.50;;;5.45;;
64297;SDS011;50639;53.270;7.956;2023-09-08T10:14:13;10.13;;;5.00;;
64297;SDS011;50639;53.270;7.956;2023-09-08T10:19:08;10.07;;;4.60;;
64297;SDS011;50639;53.270;7.956;2023-09-08T10:21:41;9.63;;;5.10;;
64297;SDS011;50639;53.270;7.956;2023-09-08T10:24:18;11.20;;;4.97;;
64297;SDS011;50639;53.270;7.956;2023-09-08T10:26:58;15.68;;;4.90;;
64297;SDS011;50639;53.270;7.956;2023-09-08T10:29:29;7.78;;;4.80;;
64297;SDS011;50639;53.270;7.956;2023-09-08T10:31:56;7.95;;;4.90;;
64297;SDS011;50639;53.270;7.956;2023-09-08T10:34:23;11.65;;;5.07;;
64297;SDS011;50639;53.270;7.956;2023-09-08T10:36:50;9.25;;;5.00;;
64297;SDS011;50639;53.270;7.956;2023-09-08T10:44:41;11.32;;;4.65;;
64297;SDS011;50639;53.270;7.956;2023-09-08T10:47:07;8.45;;;4.60;;
64297;SDS011;50639;53.270;7.956;2023-09-08T10:49:36;12.85;;;5.40;;
64297;SDS011;50639;53.270;7.956;2023-09-08T10:52:08;9.80;;;4.80;;
64297;SDS011;50639;53.270;7.956;2023-09-08T10:54:41;10.57;;;5.13;;
64297;SDS011;50639;53.270;7.956;2023-09-08T10:57:14;10.73;;;4.68;;
64297;SDS011;50639;53.270;7.956;2023-09-08T11:02:36;6.45;;;4.45;;
64297;SDS011;50639;53.270;7.956;2023-09-08T11:05:05;11.18;;;4.70;;
64297;SDS011;50639;53.270;7.956;2023-09-08T11:07:32;8.02;;;4.60;;
64297;SDS011;50639;53.270;7.956;2023-09-08T11:10:02;12.73;;;5.13;;
64297;SDS011;50639;53.270;7.956;2023-09-08T11:12:27;11.00;;;5.15;;
64297;SDS011;50639;53.270;7.956;2023-09-08T11:14:53;10.07;;;4.88;;
64297;SDS011;50639;53.270;7.956;2023-09-08T11:17:19;13.90;;;5.63;;
64297;SDS011;50639;53.270;7.956;2023-09-08T11:19:45;7.90;;;4.65;;
64297;SDS011;50639;53.270;7.956;2023-09-08T11:22:12;9.20;;;4.72;;
64297;SDS011;50639;53.270;7.956;2023-09-08T11:24:38;9.07;;;4.70;;
64297;SDS011;50639;53.270;7.956;2023-09-08T11:27:04;7.93;;;4.05;;
64297;SDS011;50639;53.270;7.956;2023-09-08T11:29:30;9.40;;;5.10;;
64297;SDS011;50639;53.270;7.956;2023-09-08T11:31:56;8.55;;;4.80;;
64297;SDS011;50639;53.270;7.956;2023-09-08T11:34:21;11.45;;;4.63;;
64297;SDS011;50639;53.270;7.956;2023-09-08T11:36:47;10.70;;;4.68;;
64297;SDS011;50639;53.270;7.956;2023-09-08T11:39:13;8.82;;;4.68;;
64297;SDS011;50639;53.270;7.956;2023-09-08T11:41:39;11.00;;;4.72;;
64297;SDS011;50639;53.270;7.956;2023-09-08T11:44:05;7.53;;;4.55;;
64297;SDS011;50639;53.270;7.956;2023-09-08T11:46:30;7.47;;;4.05;;
64297;SDS011;50639;53.270;7.956;2023-09-08T11:48:56;12.25;;;4.97;;
64297;SDS011;50639;53.270;7.956;2023-09-08T11:51:25;9.45;;;5.15;;
64297;SDS011;50639;53.270;7.956;2023-09-08T11:53:51;12.55;;;4.80;;
64297;SDS011;50639;53.270;7.956;2023-09-08T11:56:17;7.00;;;4.43;;
64297;SDS011;50639;53.270;7.956;2023-09-08T11:58:43;9.20;;;5.10;;
64297;SDS011;50639;53.270;7.956;2023-09-08T12:01:09;7.40;;;4.60;;
64297;SDS011;50639;53.270;7.956;2023-09-08T12:03:50;7.45;;;4.40;;
64297;SDS011;50639;53.270;7.956;2023-09-08T12:06:16;11.20;;;4.47;;
64297;SDS011;50639;53.270;7.956;2023-09-08T12:08:42;9.85;;;4.30;;
64297;SDS011;50639;53.270;7.956;2023-09-08T12:11:09;7.15;;;4.43;;
64297;SDS011;50639;53.270;7.956;2023-09-08T12:13:35;8.55;;;4.47;;
64297;SDS011;50639;53.270;7.956;2023-09-08T12:16:00;7.80;;;4.30;;
64297;SDS011;50639;53.270;7.956;2023-09-08T12:18:38;10.68;;;4.57;;
64297;SDS011;50639;53.270;7.956;2023-09-08T12:21:05;9.68;;;4.22;;
64297;SDS011;50639;53.270;7.956;2023-09-08T12:23:31;10.15;;;4.60;;
64297;SDS011;50639;53.270;7.956;2023-09-08T12:25:56;6.80;;;4.25;;
64297;SDS011;50639;53.270;7.956;2023-09-08T12:28:22;8.43;;;4.47;;
64297;SDS011;50639;53.270;7.956;2023-09-08T12:30:51;7.10;;;4.30;;
64297;SDS011;50639;53.270;7.956;2023-09-08T12:33:18;13.57;;;4.63;;
64297;SDS011;50639;53.270;7.956;2023-09-08T12:35:45;13.80;;;4.53;;
64297;SDS011;50639;53.270;7.956;2023-09-08T12:38:13;8.43;;;4.68;;
64297;SDS011;50639;53.270;7.956;2023-09-08T12:40:39;10.63;;;4.20;;
64297;SDS011;50639;53.270;7.956;2023-09-08T12:43:05;9.07;;;4.20;;
64297;SDS011;50639;53.270;7.956;2023-09-08T12:45:31;9.80;;;4.10;;
64297;SDS011;50639;53.270;7.956;2023-09-08T12:48:00;9.77;;;4.30;;
64297;SDS011;50639;53.270;7.956;2023-09-08T12:50:28;6.32;;;4.13;;
64297;SDS011;50639;53.270;7.956;2023-09-08T12:52:53;7.82;;;4.10;;
64297;SDS011;50639;53.270;7.956;2023-09-08T12:55:19;7.37;;;4.30;;
64297;SDS011;50639;53.270;7.956;2023-09-08T12:57:45;6.90;;;4.33;;
64297;SDS011;50639;53.270;7.956;2023-09-08T13:00:12;7.82;;;4.63;;
64297;SDS011;50639;53.270;7.956;2023-09-08T13:02:38;10.77;;;4.37;;
64297;SDS011;50639;53.270;7.956;2023-09-08T13:05:03;7.53;;;4.28;;
64297;SDS011;50639;53.270;7.956;2023-09-08T13:07:29;7.87;;;3.83;;
64297;SDS011;50639;53.270;7.956;2023-09-08T13:09:54;7.57;;;4.10;;
64297;SDS011;50639;53.270;7.956;2023-09-08T13:12:20;11.98;;;4.13;;
64297;SDS011;50639;53.270;7.956;2023-09-08T13:14:45;6.70;;;4.07;;
64297;SDS011;50639;53.270;7.956;2023-09-08T13:17:11;7.80;;;4.67;;
64297;SDS011;50639;53.270;7.956;2023-09-08T13:19:37;8.38;;;4.45;;
64297;SDS011;50639;53.270;7.956;2023-09-08T13:22:05;6.53;;;4.30;;
64297;SDS011;50639;53.270;7.956;2023-09-08T13:24:31;7.43;;;4.10;;
64297;SDS011;50639;53.270;7.956;2023-09-08T13:26:56;6.60;;;3.80;;
64297;SDS011;50639;53.270;7.956;2023-09-08T13:29:22;7.17;;;4.33;;
64297;SDS011;50639;53.270;7.956;2023-09-08T13:31:47;7.63;;;4.32;;
64297;SDS011;50639;53.270;7.956;2023-09-08T13:34:13;8.50;;;4.30;;
64297;SDS011;50639;53.270;7.956;2023-09-08T13:36:39;7.18;;;4.25;;
64297;SDS011;50639;53.270;7.956;2023-09-08T13:39:04;6.43;;;4.27;;
64297;SDS011;50639;53.270;7.956;2023-09-08T13:41:46;6.43;;;3.60;;
64297;SDS011;50639;53.270;7.956;2023-09-08T13:44:11;6.80;;;3.60;;
64297;SDS011;50639;53.270;7.956;2023-09-08T13:46:36;7.25;;;3.90;;
64297;SDS011;50639;53.270;7.956;2023-09-08T13:49:02;8.37;;;4.00;;
64297;SDS011;50639;53.270;7.956;2023-09-08T13:51:28;6.27;;;3.97;;
64297;SDS011;50639;53.270;7.956;2023-09-08T13:53:53;6.90;;;4.03;;
64297;SDS011;50639;53.270;7.956;2023-09-08T13:56:19;9.20;;;3.87;;
64297;SDS011;50639;53.270;7.956;2023-09-08T13:58:44;6.27;;;4.00;;
64297;SDS011;50639;53.270;7.956;2023-09-08T14:01:10;6.40;;;3.53;;
64297;SDS011;50639;53.270;7.956;2023-09-08T14:03:36;10.80;;;4.17;;
64297;SDS011;50639;53.270;7.956;2023-09-08T14:06:02;10.70;;;4.20;;
64297;SDS011;50639;53.270;7.956;2023-09-08T14:08:27;11.00;;;3.97;;
64297;SDS011;50639;53.270;7.956;2023-09-08T14:10:52;9.17;;;4.27;;
64297;SDS011;50639;53.270;7.956;2023-09-08T14:13:19;5.72;;;3.97;;
64297;SDS011;50639;53.270;7.956;2023-09-08T14:15:44;5.70;;;3.90;;
64297;SDS011;50639;53.270;7.956;2023-09-08T14:18:09;7.53;;;3.70;;
64297;SDS011;50639;53.270;7.956;2023-09-08T14:20:35;5.07;;;3.57;;
64297;SDS011;50639;53.270;7.956;2023-09-08T14:23:00;10.27;;;3.90;;
64297;SDS011;50639;53.270;7.956;2023-09-08T14:25:27;5.70;;;3.60;;
64297;SDS011;50639;53.270;7.956;2023-09-08T14:27:52;7.00;;;4.00;;
64297;SDS011;50639;53.270;7.956;2023-09-08T14:30:18;8.03;;;4.27;;
64297;SDS011;50639;53.270;7.956;2023-09-08T14:32:43;7.83;;;4.10;;
64297;SDS011;50639;53.270;7.956;2023-09-08T14:35:09;7.40;;;3.53;;
64297;SDS011;50639;53.270;7.956;2023-09-08T14:37:34;8.80;;;3.90;;
64297;SDS011;50639;53.270;7.956;2023-09-08T14:40:00;5.57;;;3.63;;
64297;SDS011;50639;53.270;7.956;2023-09-08T14:42:25;4.80;;;3.57;;
64297;SDS011;50639;53.270;7.956;2023-09-08T14:44:50;8.90;;;3.97;;
64297;SDS011;50639;53.270;7.956;2023-09-08T14:47:17;8.13;;;3.83;;
64297;SDS011;50639;53.270;7.956;2023-09-08T14:49:43;6.80;;;3.70;;
64297;SDS011;50639;53.270;7.956;2023-09-08T14:52:08;6.80;;;4.27;;
64297;SDS011;50639;53.270;7.956;2023-09-08T14:54:34;5.53;;;3.57;;